sensor_id;sensor_type;location;lat;lon;timestamp;P1;durP1;ratioP1;P2;durP2;ratioP2
24485;SDS011;13449;49.374;8.584;2023-03-31T00:00:13;2.05;;;0.95;;
24485;SDS011;13449;49.374;8.584;2023-03-31T00:02:41;9.48;;;1.73;;
24485;SDS011;13449;49.374;8.584;2023-03-31T00:05:10;7.40;;;1.42;;
24485;SDS011;13449;49.374;8.584;2023-03-31T00:07:39;5.43;;;1.25;;
24485;SDS011;13449;49.374;8.584;2023-03-31T00:10:05;6.05;;;1.27;;
24485;SDS011;13449;49.374;8.584;2023-03-31T00:12:43;11.15;;;1.77;;
24485;SDS011;13449;49.374;8.584;2023-03-31T00:15:13;7.78;;;1.42;;
24485;SDS011;13449;49.374;8.584;2023-03-31T00:17:39;9.90;;;1.63;;
24485;SDS011;13449;49.374;8.584;2023-03-31T00:20:06;7.90;;;1.25;;
24485;SDS011;13449;49.374;8.584;2023-03-31T00:22:37;5.43;;;0.93;;
24485;SDS011;13449;49.374;8.584;2023-03-31T00:25:10;6.47;;;1.30;;
24485;SDS011;13449;49.374;8.584;2023-03-31T00:27:40;4.82;;;1.10;;
24485;SDS011;13449;49.374;8.584;2023-03-31T00:30:09;6.50;;;1.00;;
24485;SDS011;13449;49.374;8.584;2023-03-31T00:32:40;9.05;;;1.27;;
24485;SDS011;13449;49.374;8.584;2023-03-31T00:35:07;8.13;;;1.70;;
24485;SDS011;13449;49.374;8.584;2023-03-31T00:37:34;13.07;;;1.63;;
24485;SDS011;13449;49.374;8.584;2023-03-31T00:40:00;12.60;;;1.50;;
24485;SDS011;13449;49.374;8.584;2023-03-31T00:42:27;14.70;;;1.52;;
24485;SDS011;13449;49.374;8.584;2023-03-31T00:47:46;7.47;;;1.15;;
24485;SDS011;13449;49.374;8.584;2023-03-31T00:50:17;10.07;;;1.30;;
24485;SDS011;13449;49.374;8.584;2023-03-31T00:53:01;8.75;;;1.23;;
24485;SDS011;13449;49.374;8.584;2023-03-31T00:55:34;8.20;;;1.15;;
24485;SDS011;13449;49.374;8.584;2023-03-31T00:58:05;8.25;;;1.63;;
24485;SDS011;13449;49.374;8.584;2023-03-31T01:00:40;5.82;;;1.70;;
24485;SDS011;13449;49.374;8.584;2023-03-31T01:03:12;8.15;;;1.13;;
24485;SDS011;13449;49.374;8.584;2023-03-31T01:05:42;4.07;;;1.17;;
24485;SDS011;13449;49.374;8.584;2023-03-31T01:08:12;2.78;;;1.10;;
24485;SDS011;13449;49.374;8.584;2023-03-31T01:10:42;7.88;;;1.00;;
24485;SDS011;13449;49.374;8.584;2023-03-31T01:13:16;2.17;;;1.08;;
24485;SDS011;13449;49.374;8.584;2023-03-31T01:15:47;8.13;;;1.50;;
24485;SDS011;13449;49.374;8.584;2023-03-31T01:18:18;8.02;;;1.30;;
24485;SDS011;13449;49.374;8.584;2023-03-31T01:26:38;6.47;;;1.05;;
24485;SDS011;13449;49.374;8.584;2023-03-31T01:38:18;5.57;;;1.13;;
24485;SDS011;13449;49.374;8.584;2023-03-31T01:41:26;5.20;;;0.98;;
24485;SDS011;13449;49.374;8.584;2023-03-31T01:47:05;8.93;;;1.60;;
24485;SDS011;13449;49.374;8.584;2023-03-31T01:49:49;11.13;;;1.65;;
24485;SDS011;13449;49.374;8.584;2023-03-31T01:52:31;12.98;;;1.45;;
24485;SDS011;13449;49.374;8.584;2023-03-31T01:55:25;4.07;;;1.27;;
24485;SDS011;13449;49.374;8.584;2023-03-31T01:58:45;6.35;;;1.33;;
24485;SDS011;13449;49.374;8.584;2023-03-31T02:00:54;9.05;;;1.63;;
24485;SDS011;13449;49.374;8.584;2023-03-31T02:03:27;7.53;;;1.23;;
24485;SDS011;13449;49.374;8.584;2023-03-31T02:05:59;6.85;;;1.23;;
24485;SDS011;13449;49.374;8.584;2023-03-31T02:08:37;16.40;;;1.55;;
24485;SDS011;13449;49.374;8.584;2023-03-31T02:11:08;8.75;;;1.35;;
24485;SDS011;13449;49.374;8.584;2023-03-31T02:13:36;13.85;;;2.63;;
24485;SDS011;13449;49.374;8.584;2023-03-31T02:16:08;6.85;;;1.52;;
24485;SDS011;13449;49.374;8.584;2023-03-31T02:18:39;7.68;;;0.90;;
24485;SDS011;13449;49.374;8.584;2023-03-31T02:21:07;14.65;;;1.20;;
24485;SDS011;13449;49.374;8.584;2023-03-31T02:23:35;9.57;;;0.93;;
24485;SDS011;13449;49.374;8.584;2023-03-31T02:28:33;10.15;;;1.10;;
24485;SDS011;13449;49.374;8.584;2023-03-31T02:33:36;8.98;;;0.47;;
24485;SDS011;13449;49.374;8.584;2023-03-31T02:36:02;4.97;;;0.80;;
24485;SDS011;13449;49.374;8.584;2023-03-31T02:38:31;8.45;;;1.13;;
24485;SDS011;13449;49.374;8.584;2023-03-31T02:43:29;9.82;;;1.20;;
24485;SDS011;13449;49.374;8.584;2023-03-31T02:45:58;9.15;;;1.00;;
24485;SDS011;13449;49.374;8.584;2023-03-31T02:48:28;16.40;;;1.27;;
24485;SDS011;13449;49.374;8.584;2023-03-31T02:53:42;6.00;;;0.70;;
24485;SDS011;13449;49.374;8.584;2023-03-31T03:16:09;5.35;;;0.80;;
24485;SDS011;13449;49.374;8.584;2023-03-31T03:19:00;8.85;;;1.88;;
24485;SDS011;13449;49.374;8.584;2023-03-31T03:21:28;13.10;;;2.15;;
24485;SDS011;13449;49.374;8.584;2023-03-31T03:23:56;6.40;;;1.45;;
24485;SDS011;13449;49.374;8.584;2023-03-31T03:26:25;4.38;;;1.13;;
24485;SDS011;13449;49.374;8.584;2023-03-31T03:28:54;4.38;;;1.15;;
24485;SDS011;13449;49.374;8.584;2023-03-31T03:31:22;3.88;;;1.30;;
24485;SDS011;13449;49.374;8.584;2023-03-31T03:33:49;7.90;;;1.00;;
24485;SDS011;13449;49.374;8.584;2023-03-31T03:36:16;6.03;;;0.70;;
24485;SDS011;13449;49.374;8.584;2023-03-31T03:38:42;5.57;;;0.68;;
24485;SDS011;13449;49.374;8.584;2023-03-31T03:41:09;3.03;;;0.75;;
24485;SDS011;13449;49.374;8.584;2023-03-31T03:43:35;2.33;;;0.90;;
24485;SDS011;13449;49.374;8.584;2023-03-31T03:46:02;14.50;;;1.60;;
24485;SDS011;13449;49.374;8.584;2023-03-31T03:48:29;11.65;;;1.17;;
24485;SDS011;13449;49.374;8.584;2023-03-31T03:50:57;16.40;;;1.00;;
24485;SDS011;13449;49.374;8.584;2023-03-31T03:53:29;7.53;;;1.02;;
24485;SDS011;13449;49.374;8.584;2023-03-31T03:55:58;6.13;;;0.88;;
24485;SDS011;13449;49.374;8.584;2023-03-31T03:58:27;7.30;;;0.82;;
24485;SDS011;13449;49.374;8.584;2023-03-31T04:00:56;2.92;;;0.60;;
24485;SDS011;13449;49.374;8.584;2023-03-31T04:03:22;2.38;;;0.60;;
24485;SDS011;13449;49.374;8.584;2023-03-31T04:05:51;3.10;;;0.75;;
24485;SDS011;13449;49.374;8.584;2023-03-31T04:08:18;3.72;;;0.88;;
24485;SDS011;13449;49.374;8.584;2023-03-31T04:10:45;7.20;;;0.90;;
24485;SDS011;13449;49.374;8.584;2023-03-31T04:13:14;15.85;;;1.60;;
24485;SDS011;13449;49.374;8.584;2023-03-31T04:15:45;7.90;;;1.08;;
24485;SDS011;13449;49.374;8.584;2023-03-31T04:18:12;4.00;;;1.38;;
24485;SDS011;13449;49.374;8.584;2023-03-31T04:20:49;11.00;;;1.67;;
24485;SDS011;13449;49.374;8.584;2023-03-31T04:23:34;15.15;;;1.75;;
24485;SDS011;13449;49.374;8.584;2023-03-31T04:26:03;1.95;;;0.95;;
24485;SDS011;13449;49.374;8.584;2023-03-31T04:28:34;1.85;;;0.88;;
24485;SDS011;13449;49.374;8.584;2023-03-31T04:31:08;10.52;;;1.30;;
24485;SDS011;13449;49.374;8.584;2023-03-31T04:33:35;2.40;;;0.70;;
24485;SDS011;13449;49.374;8.584;2023-03-31T04:36:05;9.05;;;1.00;;
24485;SDS011;13449;49.374;8.584;2023-03-31T04:38:43;5.13;;;1.23;;
24485;SDS011;13449;49.374;8.584;2023-03-31T04:41:12;12.50;;;1.92;;
24485;SDS011;13449;49.374;8.584;2023-03-31T04:43:39;7.90;;;1.10;;
24485;SDS011;13449;49.374;8.584;2023-03-31T04:46:06;8.57;;;1.30;;
24485;SDS011;13449;49.374;8.584;2023-03-31T04:48:33;8.70;;;1.40;;
24485;SDS011;13449;49.374;8.584;2023-03-31T04:51:00;10.70;;;1.13;;
24485;SDS011;13449;49.374;8.584;2023-03-31T04:53:29;3.75;;;1.23;;
24485;SDS011;13449;49.374;8.584;2023-03-31T04:55:56;8.55;;;1.42;;
24485;SDS011;13449;49.374;8.584;2023-03-31T04:58:22;7.35;;;1.55;;
24485;SDS011;13449;49.374;8.584;2023-03-31T05:00:51;2.13;;;0.80;;
24485;SDS011;13449;49.374;8.584;2023-03-31T05:03:20;3.83;;;1.15;;
24485;SDS011;13449;49.374;8.584;2023-03-31T05:05:47;12.55;;;1.77;;
24485;SDS011;13449;49.374;8.584;2023-03-31T05:08:14;10.32;;;1.60;;
24485;SDS011;13449;49.374;8.584;2023-03-31T05:10:40;7.03;;;1.67;;
24485;SDS011;13449;49.374;8.584;2023-03-31T05:13:08;6.60;;;1.70;;
24485;SDS011;13449;49.374;8.584;2023-03-31T05:15:38;16.00;;;1.92;;
24485;SDS011;13449;49.374;8.584;2023-03-31T05:18:06;5.60;;;1.17;;
24485;SDS011;13449;49.374;8.584;2023-03-31T05:20:35;7.93;;;1.17;;
24485;SDS011;13449;49.374;8.584;2023-03-31T05:23:04;7.90;;;1.15;;
24485;SDS011;13449;49.374;8.584;2023-03-31T05:25:32;10.27;;;2.47;;
24485;SDS011;13449;49.374;8.584;2023-03-31T05:27:58;5.90;;;1.55;;
24485;SDS011;13449;49.374;8.584;2023-03-31T05:30:26;9.02;;;1.83;;
24485;SDS011;13449;49.374;8.584;2023-03-31T05:32:54;6.68;;;1.75;;
24485;SDS011;13449;49.374;8.584;2023-03-31T05:35:21;10.50;;;1.75;;
24485;SDS011;13449;49.374;8.584;2023-03-31T05:37:48;7.13;;;1.65;;
24485;SDS011;13449;49.374;8.584;2023-03-31T05:40:14;8.85;;;1.30;;
24485;SDS011;13449;49.374;8.584;2023-03-31T05:42:41;9.52;;;3.05;;
24485;SDS011;13449;49.374;8.584;2023-03-31T05:45:07;7.82;;;2.28;;
24485;SDS011;13449;49.374;8.584;2023-03-31T05:47:34;9.15;;;1.95;;
24485;SDS011;13449;49.374;8.584;2023-03-31T05:50:02;10.23;;;2.00;;
24485;SDS011;13449;49.374;8.584;2023-03-31T05:52:34;5.50;;;1.60;;
24485;SDS011;13449;49.374;8.584;2023-03-31T05:55:01;4.38;;;1.65;;
24485;SDS011;13449;49.374;8.584;2023-03-31T05:57:29;6.30;;;1.90;;
24485;SDS011;13449;49.374;8.584;2023-03-31T05:59:56;4.78;;;2.15;;
24485;SDS011;13449;49.374;8.584;2023-03-31T06:02:23;14.35;;;2.58;;
24485;SDS011;13449;49.374;8.584;2023-03-31T06:04:49;3.97;;;2.15;;
24485;SDS011;13449;49.374;8.584;2023-03-31T06:07:17;10.27;;;3.53;;
24485;SDS011;13449;49.374;8.584;2023-03-31T06:09:44;10.63;;;4.75;;
24485;SDS011;13449;49.374;8.584;2023-03-31T06:12:13;9.95;;;2.95;;
24485;SDS011;13449;49.374;8.584;2023-03-31T06:14:41;15.13;;;3.70;;
24485;SDS011;13449;49.374;8.584;2023-03-31T06:17:07;8.35;;;2.42;;
24485;SDS011;13449;49.374;8.584;2023-03-31T06:19:34;3.05;;;1.60;;
24485;SDS011;13449;49.374;8.584;2023-03-31T06:22:01;16.13;;;2.47;;
24485;SDS011;13449;49.374;8.584;2023-03-31T06:24:27;6.65;;;1.83;;
24485;SDS011;13449;49.374;8.584;2023-03-31T06:26:53;13.38;;;2.63;;
24485;SDS011;13449;49.374;8.584;2023-03-31T06:29:22;5.63;;;2.13;;
24485;SDS011;13449;49.374;8.584;2023-03-31T06:31:49;11.43;;;2.28;;
24485;SDS011;13449;49.374;8.584;2023-03-31T06:34:16;7.10;;;2.60;;
24485;SDS011;13449;49.374;8.584;2023-03-31T06:36:46;9.95;;;2.78;;
24485;SDS011;13449;49.374;8.584;2023-03-31T06:39:13;9.20;;;3.47;;
24485;SDS011;13449;49.374;8.584;2023-03-31T06:41:42;6.22;;;2.83;;
24485;SDS011;13449;49.374;8.584;2023-03-31T06:44:08;10.00;;;3.30;;
24485;SDS011;13449;49.374;8.584;2023-03-31T06:46:35;8.07;;;2.60;;
24485;SDS011;13449;49.374;8.584;2023-03-31T06:49:02;10.13;;;2.47;;
24485;SDS011;13449;49.374;8.584;2023-03-31T06:51:28;7.85;;;2.28;;
24485;SDS011;13449;49.374;8.584;2023-03-31T06:53:57;12.00;;;3.03;;
24485;SDS011;13449;49.374;8.584;2023-03-31T06:56:24;6.05;;;2.80;;
24485;SDS011;13449;49.374;8.584;2023-03-31T06:58:51;7.05;;;2.60;;
24485;SDS011;13449;49.374;8.584;2023-03-31T07:01:18;10.05;;;3.17;;
24485;SDS011;13449;49.374;8.584;2023-03-31T07:03:44;7.55;;;2.65;;
24485;SDS011;13449;49.374;8.584;2023-03-31T07:06:13;9.10;;;2.65;;
24485;SDS011;13449;49.374;8.584;2023-03-31T07:08:42;8.35;;;2.85;;
24485;SDS011;13449;49.374;8.584;2023-03-31T07:11:08;9.30;;;3.13;;
24485;SDS011;13449;49.374;8.584;2023-03-31T07:13:36;17.05;;;3.92;;
24485;SDS011;13449;49.374;8.584;2023-03-31T07:16:02;16.40;;;3.35;;
24485;SDS011;13449;49.374;8.584;2023-03-31T07:18:30;5.57;;;3.03;;
24485;SDS011;13449;49.374;8.584;2023-03-31T07:21:01;10.43;;;3.38;;
24485;SDS011;13449;49.374;8.584;2023-03-31T07:23:32;9.40;;;3.28;;
24485;SDS011;13449;49.374;8.584;2023-03-31T07:25:59;12.82;;;3.83;;
24485;SDS011;13449;49.374;8.584;2023-03-31T07:28:28;5.95;;;2.83;;
24485;SDS011;13449;49.374;8.584;2023-03-31T07:30:55;12.68;;;3.20;;
24485;SDS011;13449;49.374;8.584;2023-03-31T07:33:22;7.25;;;2.85;;
24485;SDS011;13449;49.374;8.584;2023-03-31T07:35:51;11.07;;;3.40;;
24485;SDS011;13449;49.374;8.584;2023-03-31T07:38:37;7.25;;;3.33;;
24485;SDS011;13449;49.374;8.584;2023-03-31T07:41:05;10.77;;;3.45;;
24485;SDS011;13449;49.374;8.584;2023-03-31T07:43:35;7.85;;;3.40;;
24485;SDS011;13449;49.374;8.584;2023-03-31T07:46:12;11.85;;;3.58;;
24485;SDS011;13449;49.374;8.584;2023-03-31T07:48:43;14.88;;;3.55;;
24485;SDS011;13449;49.374;8.584;2023-03-31T07:51:12;15.70;;;3.55;;
24485;SDS011;13449;49.374;8.584;2023-03-31T07:53:40;11.38;;;3.45;;
24485;SDS011;13449;49.374;8.584;2023-03-31T07:56:06;4.60;;;2.72;;
24485;SDS011;13449;49.374;8.584;2023-03-31T07:58:33;20.55;;;3.58;;
24485;SDS011;13449;49.374;8.584;2023-03-31T08:00:59;8.27;;;3.03;;
24485;SDS011;13449;49.374;8.584;2023-03-31T08:03:27;6.90;;;2.85;;
24485;SDS011;13449;49.374;8.584;2023-03-31T08:05:54;6.68;;;2.85;;
24485;SDS011;13449;49.374;8.584;2023-03-31T08:08:20;8.63;;;2.70;;
24485;SDS011;13449;49.374;8.584;2023-03-31T08:10:47;6.32;;;2.28;;
24485;SDS011;13449;49.374;8.584;2023-03-31T08:13:14;5.22;;;2.45;;
24485;SDS011;13449;49.374;8.584;2023-03-31T08:15:41;11.60;;;2.95;;
24485;SDS011;13449;49.374;8.584;2023-03-31T08:18:07;15.27;;;3.22;;
24485;SDS011;13449;49.374;8.584;2023-03-31T08:20:34;11.82;;;3.85;;
24485;SDS011;13449;49.374;8.584;2023-03-31T08:23:00;8.90;;;3.05;;
24485;SDS011;13449;49.374;8.584;2023-03-31T08:25:27;10.25;;;3.80;;
24485;SDS011;13449;49.374;8.584;2023-03-31T08:27:53;6.22;;;2.97;;
24485;SDS011;13449;49.374;8.584;2023-03-31T08:30:22;7.50;;;3.13;;
24485;SDS011;13449;49.374;8.584;2023-03-31T08:32:49;11.27;;;3.08;;
24485;SDS011;13449;49.374;8.584;2023-03-31T08:35:16;7.63;;;2.22;;
24485;SDS011;13449;49.374;8.584;2023-03-31T08:37:42;9.73;;;3.00;;
24485;SDS011;13449;49.374;8.584;2023-03-31T08:40:13;6.03;;;2.47;;
24485;SDS011;13449;49.374;8.584;2023-03-31T08:43:07;4.65;;;2.60;;
24485;SDS011;13449;49.374;8.584;2023-03-31T08:45:43;7.43;;;2.70;;
24485;SDS011;13449;49.374;8.584;2023-03-31T08:51:00;8.65;;;2.83;;
24485;SDS011;13449;49.374;8.584;2023-03-31T08:53:40;8.13;;;2.17;;
24485;SDS011;13449;49.374;8.584;2023-03-31T08:56:16;7.97;;;1.98;;
24485;SDS011;13449;49.374;8.584;2023-03-31T08:58:46;11.23;;;2.92;;
24485;SDS011;13449;49.374;8.584;2023-03-31T09:04:19;5.35;;;2.60;;
24485;SDS011;13449;49.374;8.584;2023-03-31T09:17:51;10.40;;;2.30;;
24485;SDS011;13449;49.374;8.584;2023-03-31T09:20:22;7.30;;;1.33;;
24485;SDS011;13449;49.374;8.584;2023-03-31T09:23:07;3.05;;;1.50;;
24485;SDS011;13449;49.374;8.584;2023-03-31T09:25:38;8.95;;;1.20;;
24485;SDS011;13449;49.374;8.584;2023-03-31T09:28:50;7.05;;;1.65;;
24485;SDS011;13449;49.374;8.584;2023-03-31T09:31:03;8.55;;;1.52;;
24485;SDS011;13449;49.374;8.584;2023-03-31T09:33:44;8.18;;;1.73;;
24485;SDS011;13449;49.374;8.584;2023-03-31T09:36:15;6.85;;;1.73;;
24485;SDS011;13449;49.374;8.584;2023-03-31T09:38:47;8.45;;;1.40;;
24485;SDS011;13449;49.374;8.584;2023-03-31T09:41:14;14.55;;;1.85;;
24485;SDS011;13449;49.374;8.584;2023-03-31T09:43:42;5.93;;;1.30;;
24485;SDS011;13449;49.374;8.584;2023-03-31T09:49:01;8.35;;;1.40;;
24485;SDS011;13449;49.374;8.584;2023-03-31T09:51:34;6.38;;;1.10;;
24485;SDS011;13449;49.374;8.584;2023-03-31T09:56:54;7.32;;;1.30;;
24485;SDS011;13449;49.374;8.584;2023-03-31T09:59:22;11.68;;;1.75;;
24485;SDS011;13449;49.374;8.584;2023-03-31T10:01:56;5.72;;;1.77;;
24485;SDS011;13449;49.374;8.584;2023-03-31T10:04:27;7.95;;;1.40;;
24485;SDS011;13449;49.374;8.584;2023-03-31T10:06:55;11.07;;;2.65;;
24485;SDS011;13449;49.374;8.584;2023-03-31T10:09:25;13.68;;;1.70;;
24485;SDS011;13449;49.374;8.584;2023-03-31T10:12:01;8.52;;;1.60;;
24485;SDS011;13449;49.374;8.584;2023-03-31T10:14:47;6.78;;;1.85;;
24485;SDS011;13449;49.374;8.584;2023-03-31T10:17:17;10.38;;;2.03;;
24485;SDS011;13449;49.374;8.584;2023-03-31T10:22:28;6.65;;;1.25;;
24485;SDS011;13449;49.374;8.584;2023-03-31T10:25:09;10.05;;;1.55;;
24485;SDS011;13449;49.374;8.584;2023-03-31T10:27:41;6.03;;;1.23;;
24485;SDS011;13449;49.374;8.584;2023-03-31T10:30:16;9.48;;;1.15;;
24485;SDS011;13449;49.374;8.584;2023-03-31T10:32:46;18.80;;;1.70;;
24485;SDS011;13449;49.374;8.584;2023-03-31T10:35:31;7.53;;;1.20;;
24485;SDS011;13449;49.374;8.584;2023-03-31T10:38:04;9.60;;;1.77;;
24485;SDS011;13449;49.374;8.584;2023-03-31T10:40:33;12.48;;;1.70;;
24485;SDS011;13449;49.374;8.584;2023-03-31T10:43:08;10.93;;;1.42;;
24485;SDS011;13449;49.374;8.584;2023-03-31T10:45:42;7.07;;;1.52;;
24485;SDS011;13449;49.374;8.584;2023-03-31T10:48:31;6.40;;;1.20;;
24485;SDS011;13449;49.374;8.584;2023-03-31T10:51:03;7.40;;;1.80;;
24485;SDS011;13449;49.374;8.584;2023-03-31T10:53:46;5.13;;;0.45;;
24485;SDS011;13449;49.374;8.584;2023-03-31T10:56:33;2.63;;;0.43;;
24485;SDS011;13449;49.374;8.584;2023-03-31T10:59:09;9.93;;;1.33;;
24485;SDS011;13449;49.374;8.584;2023-03-31T11:13:28;3.85;;;0.93;;
24485;SDS011;13449;49.374;8.584;2023-03-31T11:16:21;1.40;;;0.40;;
24485;SDS011;13449;49.374;8.584;2023-03-31T11:22:03;2.45;;;0.40;;
24485;SDS011;13449;49.374;8.584;2023-03-31T11:24:39;5.55;;;0.60;;
24485;SDS011;13449;49.374;8.584;2023-03-31T11:38:12;6.82;;;0.93;;
24485;SDS011;13449;49.374;8.584;2023-03-31T11:43:33;8.38;;;1.10;;
24485;SDS011;13449;49.374;8.584;2023-03-31T11:46:06;4.68;;;1.25;;
24485;SDS011;13449;49.374;8.584;2023-03-31T11:51:33;11.02;;;1.45;;
24485;SDS011;13449;49.374;8.584;2023-03-31T11:54:19;3.88;;;1.15;;
24485;SDS011;13449;49.374;8.584;2023-03-31T11:57:09;7.32;;;1.08;;
24485;SDS011;13449;49.374;8.584;2023-03-31T11:59:41;7.45;;;1.30;;
24485;SDS011;13449;49.374;8.584;2023-03-31T12:02:15;9.80;;;1.67;;
24485;SDS011;13449;49.374;8.584;2023-03-31T12:04:47;2.60;;;0.80;;
24485;SDS011;13449;49.374;8.584;2023-03-31T12:07:28;13.90;;;1.05;;
24485;SDS011;13449;49.374;8.584;2023-03-31T12:09:59;9.27;;;1.48;;
24485;SDS011;13449;49.374;8.584;2023-03-31T12:12:44;6.00;;;1.30;;
24485;SDS011;13449;49.374;8.584;2023-03-31T12:15:22;4.32;;;1.02;;
24485;SDS011;13449;49.374;8.584;2023-03-31T12:17:55;5.47;;;0.80;;
24485;SDS011;13449;49.374;8.584;2023-03-31T12:25:29;6.45;;;0.80;;
24485;SDS011;13449;49.374;8.584;2023-03-31T12:28:13;7.25;;;1.33;;
24485;SDS011;13449;49.374;8.584;2023-03-31T12:30:41;8.38;;;1.55;;
24485;SDS011;13449;49.374;8.584;2023-03-31T12:33:19;7.13;;;1.38;;
24485;SDS011;13449;49.374;8.584;2023-03-31T12:42:08;9.82;;;1.05;;
24485;SDS011;13449;49.374;8.584;2023-03-31T12:44:59;6.82;;;1.10;;
24485;SDS011;13449;49.374;8.584;2023-03-31T12:56:07;4.15;;;0.98;;
24485;SDS011;13449;49.374;8.584;2023-03-31T12:58:38;6.70;;;0.95;;
24485;SDS011;13449;49.374;8.584;2023-03-31T13:03:38;6.22;;;1.23;;
24485;SDS011;13449;49.374;8.584;2023-03-31T13:06:44;4.63;;;0.90;;
24485;SDS011;13449;49.374;8.584;2023-03-31T13:08:55;2.65;;;0.80;;
24485;SDS011;13449;49.374;8.584;2023-03-31T13:14:11;4.63;;;0.77;;
24485;SDS011;13449;49.374;8.584;2023-03-31T13:16:42;3.17;;;0.95;;
24485;SDS011;13449;49.374;8.584;2023-03-31T13:19:10;4.30;;;0.77;;
24485;SDS011;13449;49.374;8.584;2023-03-31T13:21:52;4.28;;;1.10;;
24485;SDS011;13449;49.374;8.584;2023-03-31T13:24:21;3.75;;;0.77;;
24485;SDS011;13449;49.374;8.584;2023-03-31T13:26:49;7.20;;;1.52;;
24485;SDS011;13449;49.374;8.584;2023-03-31T13:29:19;8.95;;;1.20;;
24485;SDS011;13449;49.374;8.584;2023-03-31T13:37:15;5.88;;;1.30;;
24485;SDS011;13449;49.374;8.584;2023-03-31T13:45:44;3.47;;;0.80;;
24485;SDS011;13449;49.374;8.584;2023-03-31T13:48:17;2.95;;;1.02;;
24485;SDS011;13449;49.374;8.584;2023-03-31T13:54:08;1.05;;;0.73;;
24485;SDS011;13449;49.374;8.584;2023-03-31T14:08:17;5.97;;;1.42;;
24485;SDS011;13449;49.374;8.584;2023-03-31T14:10:52;4.93;;;1.30;;
24485;SDS011;13449;49.374;8.584;2023-03-31T14:13:19;3.53;;;1.30;;
24485;SDS011;13449;49.374;8.584;2023-03-31T14:15:51;5.07;;;2.00;;
24485;SDS011;13449;49.374;8.584;2023-03-31T14:18:24;4.63;;;1.65;;
24485;SDS011;13449;49.374;8.584;2023-03-31T14:24:00;9.52;;;1.20;;
24485;SDS011;13449;49.374;8.584;2023-03-31T14:26:53;6.55;;;0.93;;
24485;SDS011;13449;49.374;8.584;2023-03-31T14:38:11;16.55;;;6.40;;
24485;SDS011;13449;49.374;8.584;2023-03-31T14:40:49;10.98;;;3.47;;
24485;SDS011;13449;49.374;8.584;2023-03-31T14:43:25;14.90;;;1.70;;
24485;SDS011;13449;49.374;8.584;2023-03-31T14:48:29;4.68;;;1.38;;
24485;SDS011;13449;49.374;8.584;2023-03-31T14:51:00;2.75;;;0.93;;
24485;SDS011;13449;49.374;8.584;2023-03-31T14:53:30;2.65;;;1.02;;
24485;SDS011;13449;49.374;8.584;2023-03-31T14:56:02;9.77;;;1.25;;
24485;SDS011;13449;49.374;8.584;2023-03-31T14:58:34;7.07;;;1.10;;
24485;SDS011;13449;49.374;8.584;2023-03-31T15:01:04;2.70;;;0.70;;
24485;SDS011;13449;49.374;8.584;2023-03-31T15:03:33;8.73;;;1.65;;
24485;SDS011;13449;49.374;8.584;2023-03-31T15:06:04;4.82;;;0.90;;
24485;SDS011;13449;49.374;8.584;2023-03-31T15:08:30;3.42;;;0.70;;
24485;SDS011;13449;49.374;8.584;2023-03-31T15:10:58;3.67;;;0.60;;
24485;SDS011;13449;49.374;8.584;2023-03-31T15:13:42;2.67;;;0.55;;
24485;SDS011;13449;49.374;8.584;2023-03-31T15:19:14;5.40;;;0.77;;
24485;SDS011;13449;49.374;8.584;2023-03-31T15:21:42;2.38;;;0.85;;
24485;SDS011;13449;49.374;8.584;2023-03-31T15:24:10;4.10;;;0.80;;
24485;SDS011;13449;49.374;8.584;2023-03-31T15:26:46;2.42;;;0.60;;
24485;SDS011;13449;49.374;8.584;2023-03-31T15:29:42;14.90;;;1.35;;
24485;SDS011;13449;49.374;8.584;2023-03-31T15:32:22;3.33;;;0.80;;
24485;SDS011;13449;49.374;8.584;2023-03-31T15:34:53;9.50;;;0.90;;
24485;SDS011;13449;49.374;8.584;2023-03-31T15:37:24;2.80;;;0.90;;
24485;SDS011;13449;49.374;8.584;2023-03-31T15:39:58;5.95;;;1.35;;
24485;SDS011;13449;49.374;8.584;2023-03-31T15:42:27;4.88;;;0.98;;
24485;SDS011;13449;49.374;8.584;2023-03-31T15:44:55;4.13;;;1.00;;
24485;SDS011;13449;49.374;8.584;2023-03-31T15:47:48;3.47;;;0.85;;
24485;SDS011;13449;49.374;8.584;2023-03-31T15:50:22;4.05;;;1.50;;
24485;SDS011;13449;49.374;8.584;2023-03-31T15:52:52;6.07;;;1.33;;
24485;SDS011;13449;49.374;8.584;2023-03-31T15:55:24;10.02;;;1.58;;
24485;SDS011;13449;49.374;8.584;2023-03-31T15:57:54;2.25;;;0.90;;
24485;SDS011;13449;49.374;8.584;2023-03-31T16:00:42;8.45;;;2.15;;
24485;SDS011;13449;49.374;8.584;2023-03-31T16:03:15;11.13;;;2.83;;
24485;SDS011;13449;49.374;8.584;2023-03-31T16:05:54;13.18;;;3.60;;
24485;SDS011;13449;49.374;8.584;2023-03-31T16:08:35;6.75;;;1.80;;
24485;SDS011;13449;49.374;8.584;2023-03-31T16:11:13;6.63;;;2.67;;
24485;SDS011;13449;49.374;8.584;2023-03-31T16:13:44;46.22;;;18.33;;
24485;SDS011;13449;49.374;8.584;2023-03-31T16:16:17;52.00;;;19.50;;
24485;SDS011;13449;49.374;8.584;2023-03-31T16:18:53;22.42;;;7.60;;
24485;SDS011;13449;49.374;8.584;2023-03-31T16:21:32;4.43;;;2.40;;
24485;SDS011;13449;49.374;8.584;2023-03-31T16:24:03;8.75;;;1.40;;
24485;SDS011;13449;49.374;8.584;2023-03-31T16:26:30;7.30;;;1.30;;
24485;SDS011;13449;49.374;8.584;2023-03-31T16:28:57;2.92;;;0.93;;
24485;SDS011;13449;49.374;8.584;2023-03-31T16:31:26;2.47;;;0.90;;
24485;SDS011;13449;49.374;8.584;2023-03-31T16:33:55;9.85;;;2.17;;
24485;SDS011;13449;49.374;8.584;2023-03-31T16:36:22;6.07;;;1.70;;
24485;SDS011;13449;49.374;8.584;2023-03-31T16:38:52;6.78;;;1.15;;
24485;SDS011;13449;49.374;8.584;2023-03-31T16:41:20;8.30;;;0.85;;
24485;SDS011;13449;49.374;8.584;2023-03-31T16:43:48;5.10;;;1.13;;
24485;SDS011;13449;49.374;8.584;2023-03-31T16:46:17;6.57;;;1.13;;
24485;SDS011;13449;49.374;8.584;2023-03-31T16:48:44;7.28;;;1.95;;
24485;SDS011;13449;49.374;8.584;2023-03-31T16:51:13;2.53;;;1.00;;
24485;SDS011;13449;49.374;8.584;2023-03-31T16:53:40;5.68;;;1.50;;
24485;SDS011;13449;49.374;8.584;2023-03-31T16:56:07;6.40;;;0.82;;
24485;SDS011;13449;49.374;8.584;2023-03-31T16:58:35;4.35;;;1.13;;
24485;SDS011;13449;49.374;8.584;2023-03-31T17:01:03;6.22;;;2.00;;
24485;SDS011;13449;49.374;8.584;2023-03-31T17:03:34;2.90;;;0.85;;
24485;SDS011;13449;49.374;8.584;2023-03-31T17:06:04;7.75;;;1.00;;
24485;SDS011;13449;49.374;8.584;2023-03-31T17:08:32;7.22;;;0.80;;
24485;SDS011;13449;49.374;8.584;2023-03-31T17:11:04;2.08;;;0.77;;
24485;SDS011;13449;49.374;8.584;2023-03-31T17:13:33;2.28;;;0.60;;
24485;SDS011;13449;49.374;8.584;2023-03-31T17:15:59;3.90;;;1.23;;
24485;SDS011;13449;49.374;8.584;2023-03-31T17:18:48;3.05;;;0.82;;
24485;SDS011;13449;49.374;8.584;2023-03-31T17:21:15;0.93;;;0.47;;
24485;SDS011;13449;49.374;8.584;2023-03-31T17:23:45;1.08;;;0.50;;
24485;SDS011;13449;49.374;8.584;2023-03-31T17:26:12;3.35;;;0.60;;
24485;SDS011;13449;49.374;8.584;2023-03-31T17:28:44;0.75;;;0.30;;
24485;SDS011;13449;49.374;8.584;2023-03-31T17:31:14;0.73;;;0.52;;
24485;SDS011;13449;49.374;8.584;2023-03-31T17:33:42;0.63;;;0.40;;
24485;SDS011;13449;49.374;8.584;2023-03-31T17:36:12;5.05;;;0.90;;
24485;SDS011;13449;49.374;8.584;2023-03-31T17:38:43;2.45;;;0.50;;
24485;SDS011;13449;49.374;8.584;2023-03-31T17:41:11;3.90;;;1.02;;
24485;SDS011;13449;49.374;8.584;2023-03-31T17:43:43;2.95;;;0.95;;
24485;SDS011;13449;49.374;8.584;2023-03-31T17:46:10;4.45;;;1.08;;
24485;SDS011;13449;49.374;8.584;2023-03-31T17:48:38;2.30;;;1.10;;
24485;SDS011;13449;49.374;8.584;2023-03-31T17:51:05;4.03;;;1.13;;
24485;SDS011;13449;49.374;8.584;2023-03-31T17:53:34;7.50;;;1.20;;
24485;SDS011;13449;49.374;8.584;2023-03-31T17:56:04;5.78;;;0.55;;
24485;SDS011;13449;49.374;8.584;2023-03-31T17:58:33;2.42;;;0.68;;
24485;SDS011;13449;49.374;8.584;2023-03-31T18:01:02;6.57;;;1.52;;
24485;SDS011;13449;49.374;8.584;2023-03-31T18:03:33;5.35;;;1.50;;
24485;SDS011;13449;49.374;8.584;2023-03-31T18:08:33;5.50;;;1.20;;